Favola — IBFH — position and weather

sailwx.info

Track history (hours):
 
Tides and Currents Weather Stations Pressure Air Temp Water Temp Dewpoint Dewpoint Depression Visibility Wind Speed Wind Dir Waves Ship Positions

Favola

Last reported at 2017-Mar-26 04:33 UTC. Time now 2017-Mar-28 17:57 UTC.
Position N 01°14' E 103°60'.

Length 180 m; draft 10.1 m.

Type: Ship (hazmat cat A). MMSI: 247069800.

Date/timePositionNaut miles runAvg speedWind from/ knotsBaromVisibWave heightAir tempDewpointWater temp
2017-Mar-26 04:33N 01°14' E 103°60'1212.4
2017-Mar-26 03:33N 01°10' E 103°48'1111.2
2017-Mar-26 02:33N 01°03' E 103°39'1111.3
2017-Mar-26 01:33N 01°09' E 103°29'1110.9
2017-Mar-26 00:33N 01°15' E 103°21'58 9.5
2017-Mar-25 18:27N 01°47' E 102°32'8 8.3
2017-Mar-25 17:31N 01°50' E 102°25'  
2017-Mar-22 07:10N 01°57' E 102°16'711.6
2017-Mar-22 06:33N 01°54' E 102°22'1211.6
2017-Mar-22 05:31N 01°49' E 102°33'5911.9
2017-Mar-22 00:33N 01°17' E 103°23'1111.5
2017-Mar-21 23:33N 01°12' E 103°33'8 8.3
2017-Mar-21 22:33N 01°14' E 103°41'1 1.0
2017-Mar-21 21:33N 01°15' E 103°41'0 0.0
2017-Mar-21 20:33N 01°15' E 103°41'0 0.0
2017-Mar-21 19:33N 01°15' E 103°41'0 0.0
2017-Mar-21 18:27N 01°15' E 103°41'0 0.0
2017-Mar-21 17:33N 01°15' E 103°41'0 0.0
2017-Mar-21 16:33N 01°15' E 103°41'0 0.0
2017-Mar-21 15:33N 01°15' E 103°41'0 0.0
2017-Mar-21 14:30N 01°15' E 103°41'0 0.0
2017-Mar-21 13:30N 01°15' E 103°41'0 0.0
2017-Mar-21 12:33N 01°15' E 103°41'0 0.0
2017-Mar-21 11:33N 01°15' E 103°41'0 0.0
2017-Mar-21 10:30N 01°15' E 103°41'0 0.0
2017-Mar-21 09:33N 01°15' E 103°41'0 0.0
2017-Mar-21 08:33N 01°15' E 103°41'0 0.0
2017-Mar-21 07:33N 01°15' E 103°41'0 0.0
2017-Mar-21 06:33N 01°15' E 103°41'0 0.0
2017-Mar-21 05:30N 01°15' E 103°41'0 0.0
2017-Mar-21 04:33N 01°15' E 103°41'0 0.0
2017-Mar-21 03:33N 01°15' E 103°41'1 0.8
2017-Mar-21 02:33N 01°15' E 103°42'5 5.4
2017-Mar-21 01:33N 01°14' E 103°48'2 1.8
2017-Mar-21 00:29N 01°13' E 103°49'0 0.0
2017-Mar-20 23:32N 01°13' E 103°49'4 4.4
2017-Mar-20 22:33N 01°14' E 103°53'6 6.3
2017-Mar-20 21:33N 01°16' E 103°59'5 5.2
2017-Mar-20 20:33N 01°17' E 104°05'1 0.1
2017-Mar-19 22:15N 01°15' E 104°04'811.8
2017-Mar-19 21:33N 01°13' E 103°56'9 8.5
2017-Mar-19 20:33N 01°13' E 103°48'6 6.4
2017-Mar-19 19:32N 01°18' E 103°43'0 0.0
2017-Mar-19 18:29N 01°18' E 103°43'0 0.0
2017-Mar-19 17:26N 01°18' E 103°43'0 0.0
2017-Mar-19 16:32N 01°18' E 103°43'0 0.0
2017-Mar-19 15:32N 01°18' E 103°43'0 0.0
2017-Mar-19 14:29N 01°18' E 103°43'0 0.0
2017-Mar-19 13:32N 01°18' E 103°43'0 0.0
2017-Mar-19 12:32N 01°18' E 103°43'0 0.0
2017-Mar-19 11:32N 01°18' E 103°43'0 0.0
2017-Mar-19 10:32N 01°18' E 103°43'0 0.0
2017-Mar-19 09:32N 01°18' E 103°43'0 0.0
2017-Mar-19 08:29N 01°18' E 103°43'0 0.0
2017-Mar-19 07:32N 01°18' E 103°43'0 0.0
2017-Mar-19 06:29N 01°18' E 103°43'0 0.0
2017-Mar-19 05:32N 01°18' E 103°43'0 0.0
2017-Mar-19 04:32N 01°18' E 103°43'0 0.0
2017-Mar-19 03:32N 01°18' E 103°43'0 0.0
2017-Mar-19 02:32N 01°18' E 103°43'0 0.0
2017-Mar-19 01:32N 01°18' E 103°43'0 0.0
2017-Mar-19 00:32N 01°18' E 103°43'0 0.0
2017-Mar-18 23:32N 01°18' E 103°43'0 0.0
2017-Mar-18 22:32N 01°18' E 103°43'0 0.0
2017-Mar-18 21:32N 01°18' E 103°43'0 0.0
2017-Mar-18 20:32N 01°18' E 103°43'0 0.0
2017-Mar-18 19:29N 01°18' E 103°43'0 0.0
2017-Mar-18 18:29N 01°18' E 103°43'0 0.0
2017-Mar-18 17:32N 01°18' E 103°43'0 0.0
2017-Mar-18 16:32N 01°18' E 103°43'0 0.0
2017-Mar-18 15:32N 01°18' E 103°43'0 0.0
2017-Mar-18 14:31N 01°18' E 103°43'0 0.0
2017-Mar-18 13:31N 01°18' E 103°43'0 0.0
2017-Mar-18 12:31N 01°18' E 103°43'0 0.0
2017-Mar-18 11:28N 01°18' E 103°43'0 0.0
2017-Mar-18 10:31N 01°18' E 103°43'0 0.0
2017-Mar-18 09:31N 01°18' E 103°43'0 0.1
2017-Mar-18 08:33N 01°18' E 103°43'1 1.3
2017-Mar-18 07:33N 01°17' E 103°44'6 5.8
2017-Mar-18 06:33N 01°13' E 103°48'7 1.7
2017-Mar-18 02:30N 01°15' E 103°55'0 0.1
2017-Mar-18 01:30N 01°15' E 103°55'0 0.0
2017-Mar-18 00:33N 01°15' E 103°55'0 0.1
2017-Mar-17 23:27N 01°15' E 103°55'0 0.1
2017-Mar-17 22:33N 01°15' E 103°55'0 0.0
2017-Mar-17 21:29N 01°15' E 103°55'0 0.1
2017-Mar-17 20:14N 01°15' E 103°55'0 0.1
2017-Mar-17 19:32N 01°15' E 103°55'0 0.0
2017-Mar-17 18:29N 01°15' E 103°55'0 0.0
2017-Mar-17 17:14N 01°15' E 103°55'0 0.0
2017-Mar-17 16:23N 01°15' E 103°55'0 0.0
2017-Mar-17 15:32N 01°15' E 103°55'0 0.0
2017-Mar-17 14:20N 01°15' E 103°55'0 0.0
2017-Mar-17 13:32N 01°15' E 103°55'0 0.0
2017-Mar-17 12:23N 01°15' E 103°55'0 0.0
2017-Mar-17 11:32N 01°15' E 103°55'0 0.1
2017-Mar-17 10:29N 01°15' E 103°55'0 0.0
2017-Mar-17 09:32N 01°15' E 103°55'0 0.0
2017-Mar-17 07:32N 01°15' E 103°55'0 0.0
2017-Mar-17 06:20N 01°15' E 103°55'0 0.0
2017-Mar-17 02:20N 01°15' E 103°55'0 0.1
2017-Mar-17 01:29N 01°15' E 103°55'0 0.0
2017-Mar-17 00:32N 01°15' E 103°55'0 0.0
2017-Mar-16 23:32N 01°15' E 103°55'0 0.0
2017-Mar-16 22:32N 01°15' E 103°55'0 0.1
2017-Mar-16 21:32N 01°15' E 103°55'0 0.1
2017-Mar-16 20:26N 01°15' E 103°55'0 0.1
2017-Mar-16 19:23N 01°15' E 103°55'0 0.0
2017-Mar-16 18:32N 01°15' E 103°55'0 0.0
2017-Mar-16 17:32N 01°15' E 103°55'0 0.0
2017-Mar-16 16:14N 01°15' E 103°55'0 0.0
2017-Mar-16 13:29N 01°15' E 103°55'4 4.2
2017-Mar-16 12:34N 01°16' E 103°59'  
Track history (hours):
 
Tides and Currents Weather Stations Pressure Air Temp Water Temp Dewpoint Dewpoint Depression Visibility Wind Speed Wind Dir Waves Ship Positions

Favola

Last reported at 2017-Mar-26 04:33 UTC. Time now 2017-Mar-28 17:57 UTC.
Position N 01°14' E 103°60'.

Length 180 m; draft 10.1 m.

Type: Ship (hazmat cat A). MMSI: 247069800.

Date/timePositionNaut miles runAvg speedWind from/ knotsBaromVisibWave heightAir tempDewpointWater temp
2017-Mar-26 04:33N 01°14' E 103°60'1212.4
2017-Mar-26 03:33N 01°10' E 103°48'1111.2
2017-Mar-26 02:33N 01°03' E 103°39'1111.3
2017-Mar-26 01:33N 01°09' E 103°29'1110.9
2017-Mar-26 00:33N 01°15' E 103°21'58 9.5
2017-Mar-25 18:27N 01°47' E 102°32'8 8.3
2017-Mar-25 17:31N 01°50' E 102°25'  
2017-Mar-22 07:10N 01°57' E 102°16'711.6
2017-Mar-22 06:33N 01°54' E 102°22'1211.6
2017-Mar-22 05:31N 01°49' E 102°33'5911.9
2017-Mar-22 00:33N 01°17' E 103°23'1111.5
2017-Mar-21 23:33N 01°12' E 103°33'8 8.3
2017-Mar-21 22:33N 01°14' E 103°41'1 1.0
2017-Mar-21 21:33N 01°15' E 103°41'0 0.0
2017-Mar-21 20:33N 01°15' E 103°41'0 0.0
2017-Mar-21 19:33N 01°15' E 103°41'0 0.0
2017-Mar-21 18:27N 01°15' E 103°41'0 0.0
2017-Mar-21 17:33N 01°15' E 103°41'0 0.0
2017-Mar-21 16:33N 01°15' E 103°41'0 0.0
2017-Mar-21 15:33N 01°15' E 103°41'0 0.0
2017-Mar-21 14:30N 01°15' E 103°41'0 0.0
2017-Mar-21 13:30N 01°15' E 103°41'0 0.0
2017-Mar-21 12:33N 01°15' E 103°41'0 0.0
2017-Mar-21 11:33N 01°15' E 103°41'0 0.0
2017-Mar-21 10:30N 01°15' E 103°41'0 0.0
2017-Mar-21 09:33N 01°15' E 103°41'0 0.0
2017-Mar-21 08:33N 01°15' E 103°41'0 0.0
2017-Mar-21 07:33N 01°15' E 103°41'0 0.0
2017-Mar-21 06:33N 01°15' E 103°41'0 0.0
2017-Mar-21 05:30N 01°15' E 103°41'0 0.0
2017-Mar-21 04:33N 01°15' E 103°41'0 0.0
2017-Mar-21 03:33N 01°15' E 103°41'1 0.8
2017-Mar-21 02:33N 01°15' E 103°42'5 5.4
2017-Mar-21 01:33N 01°14' E 103°48'2 1.8
2017-Mar-21 00:29N 01°13' E 103°49'0 0.0
2017-Mar-20 23:32N 01°13' E 103°49'4 4.4
2017-Mar-20 22:33N 01°14' E 103°53'6 6.3
2017-Mar-20 21:33N 01°16' E 103°59'5 5.2
2017-Mar-20 20:33N 01°17' E 104°05'1 0.1
2017-Mar-19 22:15N 01°15' E 104°04'811.8
2017-Mar-19 21:33N 01°13' E 103°56'9 8.5
2017-Mar-19 20:33N 01°13' E 103°48'6 6.4
2017-Mar-19 19:32N 01°18' E 103°43'0 0.0
2017-Mar-19 18:29N 01°18' E 103°43'0 0.0
2017-Mar-19 17:26N 01°18' E 103°43'0 0.0
2017-Mar-19 16:32N 01°18' E 103°43'0 0.0
2017-Mar-19 15:32N 01°18' E 103°43'0 0.0
2017-Mar-19 14:29N 01°18' E 103°43'0 0.0
2017-Mar-19 13:32N 01°18' E 103°43'0 0.0
2017-Mar-19 12:32N 01°18' E 103°43'0 0.0
2017-Mar-19 11:32N 01°18' E 103°43'0 0.0
2017-Mar-19 10:32N 01°18' E 103°43'0 0.0
2017-Mar-19 09:32N 01°18' E 103°43'0 0.0
2017-Mar-19 08:29N 01°18' E 103°43'0 0.0
2017-Mar-19 07:32N 01°18' E 103°43'0 0.0
2017-Mar-19 06:29N 01°18' E 103°43'0 0.0
2017-Mar-19 05:32N 01°18' E 103°43'0 0.0
2017-Mar-19 04:32N 01°18' E 103°43'0 0.0
2017-Mar-19 03:32N 01°18' E 103°43'0 0.0
2017-Mar-19 02:32N 01°18' E 103°43'0 0.0
2017-Mar-19 01:32N 01°18' E 103°43'0 0.0
2017-Mar-19 00:32N 01°18' E 103°43'0 0.0
2017-Mar-18 23:32N 01°18' E 103°43'0 0.0
2017-Mar-18 22:32N 01°18' E 103°43'0 0.0
2017-Mar-18 21:32N 01°18' E 103°43'0 0.0
2017-Mar-18 20:32N 01°18' E 103°43'0 0.0
2017-Mar-18 19:29N 01°18' E 103°43'0 0.0
2017-Mar-18 18:29N 01°18' E 103°43'0 0.0
2017-Mar-18 17:32N 01°18' E 103°43'0 0.0
2017-Mar-18 16:32N 01°18' E 103°43'0 0.0
2017-Mar-18 15:32N 01°18' E 103°43'0 0.0
2017-Mar-18 14:31N 01°18' E 103°43'0 0.0
2017-Mar-18 13:31N 01°18' E 103°43'0 0.0
2017-Mar-18 12:31N 01°18' E 103°43'0 0.0
2017-Mar-18 11:28N 01°18' E 103°43'0 0.0
2017-Mar-18 10:31N 01°18' E 103°43'0 0.0
2017-Mar-18 09:31N 01°18' E 103°43'0 0.1
2017-Mar-18 08:33N 01°18' E 103°43'1 1.3
2017-Mar-18 07:33N 01°17' E 103°44'6 5.8
2017-Mar-18 06:33N 01°13' E 103°48'7 1.7
2017-Mar-18 02:30N 01°15' E 103°55'0 0.1
2017-Mar-18 01:30N 01°15' E 103°55'0 0.0
2017-Mar-18 00:33N 01°15' E 103°55'0 0.1
2017-Mar-17 23:27N 01°15' E 103°55'0 0.1
2017-Mar-17 22:33N 01°15' E 103°55'0 0.0
2017-Mar-17 21:29N 01°15' E 103°55'0 0.1
2017-Mar-17 20:14N 01°15' E 103°55'0 0.1
2017-Mar-17 19:32N 01°15' E 103°55'0 0.0
2017-Mar-17 18:29N 01°15' E 103°55'0 0.0
2017-Mar-17 17:14N 01°15' E 103°55'0 0.0
2017-Mar-17 16:23N 01°15' E 103°55'0 0.0
2017-Mar-17 15:32N 01°15' E 103°55'0 0.0
2017-Mar-17 14:20N 01°15' E 103°55'0 0.0
2017-Mar-17 13:32N 01°15' E 103°55'0 0.0
2017-Mar-17 12:23N 01°15' E 103°55'0 0.0
2017-Mar-17 11:32N 01°15' E 103°55'0 0.1
2017-Mar-17 10:29N 01°15' E 103°55'0 0.0
2017-Mar-17 09:32N 01°15' E 103°55'0 0.0
2017-Mar-17 07:32N 01°15' E 103°55'0 0.0
2017-Mar-17 06:20N 01°15' E 103°55'0 0.0
2017-Mar-17 02:20N 01°15' E 103°55'0 0.1
2017-Mar-17 01:29N 01°15' E 103°55'0 0.0
2017-Mar-17 00:32N 01°15' E 103°55'0 0.0
2017-Mar-16 23:32N 01°15' E 103°55'0 0.0
2017-Mar-16 22:32N 01°15' E 103°55'0 0.1
2017-Mar-16 21:32N 01°15' E 103°55'0 0.1
2017-Mar-16 20:26N 01°15' E 103°55'0 0.1
2017-Mar-16 19:23N 01°15' E 103°55'0 0.0
2017-Mar-16 18:32N 01°15' E 103°55'0 0.0
2017-Mar-16 17:32N 01°15' E 103°55'0 0.0
2017-Mar-16 16:14N 01°15' E 103°55'0 0.0
2017-Mar-16 13:29N 01°15' E 103°55'4 4.2
2017-Mar-16 12:34N 01°16' E 103°59'  

Dump ship's entire track history